createdAt,value
2023-05-14T00:00:59.757Z,50.76
2023-05-14T00:01:59.690Z,50.11
2023-05-14T00:02:59.798Z,47.86
2023-05-14T00:03:59.807Z,49.31
2023-05-14T00:04:59.679Z,51.72
2023-05-14T00:05:59.774Z,49.79
2023-05-14T00:06:59.643Z,48.18
2023-05-14T00:07:59.625Z,50.92
2023-05-14T00:08:59.628Z,48.82
2023-05-14T00:09:59.628Z,46.25
2023-05-14T00:10:59.775Z,47.37
2023-05-14T00:11:59.595Z,50.92
2023-05-14T00:12:59.616Z,48.02
2023-05-14T00:13:59.573Z,47.37
2023-05-14T00:14:59.613Z,47.86
2023-05-14T00:15:59.670Z,47.53
2023-05-14T00:16:59.599Z,46.08
2023-05-14T00:17:59.597Z,46.41
2023-05-14T00:18:59.581Z,51.40
2023-05-14T00:19:59.539Z,48.34
2023-05-14T00:20:59.580Z,47.05
2023-05-14T00:21:59.516Z,46.73
2023-05-14T00:22:59.541Z,46.57
2023-05-14T00:23:59.530Z,45.28
2023-05-14T00:24:59.526Z,44.63
2023-05-14T00:25:59.498Z,45.76
2023-05-14T00:26:59.526Z,49.63
2023-05-14T00:27:59.500Z,45.60
2023-05-14T00:28:59.493Z,47.86
2023-05-14T00:29:59.506Z,45.92
2023-05-14T00:30:59.500Z,46.73
2023-05-14T00:31:59.453Z,47.70
2023-05-14T00:32:59.487Z,47.53
2023-05-14T00:33:59.456Z,46.25
2023-05-14T00:34:59.463Z,49.47
2023-05-14T00:35:59.440Z,52.05
2023-05-14T00:36:59.484Z,49.95
2023-05-14T00:37:59.409Z,46.57
2023-05-14T00:38:59.422Z,47.70
2023-05-14T00:39:59.414Z,48.50
2023-05-14T00:40:59.422Z,48.50
2023-05-14T00:41:59.429Z,49.63
2023-05-14T00:42:59.419Z,50.43
2023-05-14T00:43:59.395Z,50.43
2023-05-14T00:44:59.390Z,46.08
2023-05-14T00:45:59.395Z,48.34
2023-05-14T00:46:59.498Z,51.56
2023-05-14T00:47:59.356Z,48.02
2023-05-14T00:48:59.367Z,48.34
2023-05-14T00:49:59.328Z,47.37
2023-05-14T00:50:59.382Z,44.15
2023-05-14T00:51:59.320Z,49.95
2023-05-14T00:52:59.346Z,50.27
2023-05-14T00:53:59.306Z,45.12
2023-05-14T00:54:59.324Z,44.96
2023-05-14T00:55:59.297Z,49.79
2023-05-14T00:56:59.322Z,52.69
2023-05-14T00:57:59.325Z,48.66
2023-05-14T00:58:59.309Z,46.89
2023-05-14T00:59:59.275Z,47.86
2023-05-14T01:00:59.310Z,47.70
2023-05-14T01:01:59.258Z,48.98
2023-05-14T01:02:59.414Z,44.47
2023-05-14T01:03:59.409Z,44.96
2023-05-14T01:04:59.300Z,46.73
2023-05-14T01:05:59.229Z,52.05
2023-05-14T01:06:59.248Z,46.57
2023-05-14T01:07:59.253Z,45.60
2023-05-14T01:08:59.259Z,47.86
2023-05-14T01:09:59.220Z,47.37
2023-05-14T01:10:59.220Z,44.79
2023-05-14T01:11:59.200Z,49.47
2023-05-14T01:12:59.244Z,48.02
2023-05-14T01:13:59.214Z,48.66
2023-05-14T01:14:59.198Z,48.18
2023-05-14T01:15:59.252Z,47.53
2023-05-14T01:16:59.269Z,50.27
2023-05-14T01:17:59.253Z,52.21
2023-05-14T01:18:59.217Z,51.72
2023-05-14T01:19:59.150Z,49.95
2023-05-14T01:20:59.175Z,50.60
2023-05-14T01:21:59.154Z,51.88
2023-05-14T01:22:59.159Z,50.76
2023-05-14T01:23:59.192Z,49.31
2023-05-14T01:24:59.145Z,46.25
2023-05-14T01:25:59.147Z,48.82
2023-05-14T01:26:59.149Z,49.15
2023-05-14T01:27:59.108Z,49.15
2023-05-14T01:28:59.125Z,49.47
2023-05-14T01:29:59.135Z,45.44
2023-05-14T01:30:59.128Z,45.76
2023-05-14T01:31:59.116Z,46.73
2023-05-14T01:32:59.174Z,48.82
2023-05-14T01:33:59.087Z,47.86
2023-05-14T01:34:59.105Z,47.86
2023-05-14T01:35:59.096Z,52.05
2023-05-14T01:36:59.091Z,52.69
2023-05-14T01:37:59.044Z,53.33
2023-05-14T01:38:59.061Z,54.30
2023-05-14T01:39:59.028Z,54.62
2023-05-14T01:40:59.056Z,52.21
2023-05-14T01:41:59.026Z,50.92
2023-05-14T01:42:59.020Z,52.37
2023-05-14T01:43:59.023Z,53.50
2023-05-14T01:44:59.019Z,52.05
2023-05-14T01:45:59.057Z,52.05
2023-05-14T01:46:59.000Z,50.76
2023-05-14T01:47:59.028Z,46.57
2023-05-14T01:48:59.007Z,47.05
2023-05-14T01:49:58.974Z,52.85
2023-05-14T01:50:58.980Z,50.92
2023-05-14T01:51:58.971Z,45.12
2023-05-14T01:52:58.961Z,47.21
2023-05-14T01:53:58.957Z,53.17
2023-05-14T01:54:58.953Z,46.57
2023-05-14T01:55:58.958Z,45.60
2023-05-14T01:56:58.963Z,46.25
2023-05-14T01:57:58.954Z,47.70
2023-05-14T01:58:58.916Z,47.53
2023-05-14T01:59:58.889Z,47.53
2023-05-14T02:00:58.963Z,46.25
2023-05-14T02:01:58.984Z,47.86
2023-05-14T02:02:58.970Z,47.86
2023-05-14T02:03:58.939Z,51.24
2023-05-14T02:04:58.923Z,52.21
2023-05-14T02:05:58.884Z,45.60
2023-05-14T02:06:58.857Z,44.31
2023-05-14T02:07:58.882Z,49.31
2023-05-14T02:08:58.850Z,45.44
2023-05-14T02:09:58.830Z,49.15
2023-05-14T02:10:58.837Z,45.76
2023-05-14T02:11:58.825Z,47.70
2023-05-14T02:12:58.874Z,47.86
2023-05-14T02:13:58.842Z,45.60
2023-05-14T02:14:58.809Z,45.60
2023-05-14T02:15:58.837Z,47.05
2023-05-14T02:16:58.824Z,45.60
2023-05-14T02:17:58.831Z,46.25
2023-05-14T02:18:58.855Z,51.88
2023-05-14T02:19:58.842Z,47.70
2023-05-14T02:20:58.809Z,48.50
2023-05-14T02:21:58.876Z,45.92
2023-05-14T02:22:58.823Z,48.02
2023-05-14T02:23:58.847Z,45.60
2023-05-14T02:24:58.849Z,44.79
2023-05-14T02:25:58.723Z,47.70
2023-05-14T02:26:58.757Z,43.83
2023-05-14T02:27:58.740Z,45.28
2023-05-14T02:28:58.737Z,45.76
2023-05-14T02:29:58.714Z,53.33
2023-05-14T02:30:58.738Z,51.56
2023-05-14T02:31:58.714Z,50.60
2023-05-14T02:32:58.759Z,49.47
2023-05-14T02:33:58.699Z,48.34
2023-05-14T02:34:58.703Z,48.66
2023-05-14T02:35:58.674Z,48.66
2023-05-14T02:36:58.682Z,47.53
2023-05-14T02:37:58.642Z,48.18
2023-05-14T02:38:58.653Z,48.02
2023-05-14T02:39:58.703Z,46.89
2023-05-14T02:40:58.641Z,50.60
2023-05-14T02:41:58.664Z,48.34
2023-05-14T02:42:58.640Z,52.21
2023-05-14T02:43:58.607Z,50.27
2023-05-14T02:44:58.626Z,54.30
2023-05-14T02:45:58.629Z,53.01
2023-05-14T02:46:58.653Z,52.05
2023-05-14T02:47:58.633Z,55.11
2023-05-14T02:48:58.605Z,51.56
2023-05-14T02:49:58.567Z,54.62
2023-05-14T02:50:58.621Z,55.43
2023-05-14T02:51:58.564Z,53.98
2023-05-14T02:52:58.563Z,52.69
2023-05-14T02:53:58.552Z,52.05
2023-05-14T02:54:58.565Z,53.33
2023-05-14T02:55:58.545Z,54.79
2023-05-14T02:56:58.542Z,55.27
2023-05-14T02:57:58.513Z,54.46
2023-05-14T02:58:58.566Z,52.53
2023-05-14T02:59:58.523Z,51.72
2023-05-14T03:00:58.562Z,53.50
2023-05-14T03:01:58.540Z,52.53
2023-05-14T03:02:58.520Z,54.30
2023-05-14T03:03:58.479Z,56.07
2023-05-14T03:04:58.540Z,55.43
2023-05-14T03:05:58.461Z,54.14
2023-05-14T03:06:58.496Z,54.79
2023-05-14T03:07:58.465Z,56.40
2023-05-14T03:08:58.460Z,56.40
2023-05-14T03:09:58.434Z,55.91
2023-05-14T03:10:58.451Z,51.40
2023-05-14T03:11:58.450Z,52.53
2023-05-14T03:12:58.447Z,53.82
2023-05-14T03:13:58.405Z,53.66
2023-05-14T03:14:58.436Z,50.60
2023-05-14T03:15:58.410Z,51.24
2023-05-14T03:16:58.469Z,50.76
2023-05-14T03:17:58.431Z,54.79
2023-05-14T03:18:58.465Z,54.95
2023-05-14T03:19:58.378Z,55.91
2023-05-14T03:20:58.400Z,54.14
2023-05-14T03:21:58.400Z,55.91
2023-05-14T03:22:58.417Z,54.14
2023-05-14T03:23:58.357Z,55.75
2023-05-14T03:24:58.374Z,52.37
2023-05-14T03:25:58.352Z,50.43
2023-05-14T03:26:58.349Z,52.21
2023-05-14T03:27:58.328Z,53.33
2023-05-14T03:28:58.349Z,52.37
2023-05-14T03:29:58.304Z,49.79
2023-05-14T03:30:58.409Z,53.17
2023-05-14T03:31:58.316Z,49.63
2023-05-14T03:32:58.375Z,53.01
2023-05-14T03:33:58.317Z,52.85
2023-05-14T03:34:58.318Z,56.40
2023-05-14T03:35:58.279Z,53.17
2023-05-14T03:36:58.277Z,52.85
2023-05-14T03:37:58.265Z,51.56
2023-05-14T03:38:58.289Z,52.37
2023-05-14T03:39:58.264Z,52.53
2023-05-14T03:40:58.264Z,51.24
2023-05-14T03:41:58.222Z,52.69
2023-05-14T03:42:58.263Z,50.92
2023-05-14T03:43:58.217Z,53.17
2023-05-14T03:44:58.227Z,53.50
2023-05-14T03:45:58.226Z,53.50
2023-05-14T03:46:58.211Z,52.37
2023-05-14T03:47:58.340Z,51.88
2023-05-14T03:48:58.351Z,52.21
2023-05-14T03:49:58.196Z,49.79
2023-05-14T03:50:58.179Z,51.08
2023-05-14T03:51:58.182Z,49.31
2023-05-14T03:52:58.174Z,52.21
2023-05-14T03:53:58.138Z,52.21
2023-05-14T03:54:58.168Z,51.08
2023-05-14T03:55:58.174Z,54.79
2023-05-14T03:56:58.134Z,49.63
2023-05-14T03:57:58.126Z,54.46
2023-05-14T03:58:58.152Z,55.75
2023-05-14T03:59:58.105Z,49.95
2023-05-14T04:00:58.142Z,52.21
2023-05-14T04:01:58.085Z,53.50
2023-05-14T04:02:58.250Z,49.79
2023-05-14T04:03:58.166Z,56.07
2023-05-14T04:04:58.117Z,53.50
2023-05-14T04:05:58.057Z,54.30
2023-05-14T04:06:58.109Z,51.24
2023-05-14T04:07:58.053Z,52.37
2023-05-14T04:08:58.089Z,54.30
2023-05-14T04:09:58.034Z,55.43
2023-05-14T04:10:58.039Z,58.17
2023-05-14T04:11:58.044Z,56.56
2023-05-14T04:12:58.022Z,54.14
2023-05-14T04:13:58.011Z,53.82
2023-05-14T04:14:58.033Z,52.85
2023-05-14T04:15:58.007Z,53.66
2023-05-14T04:16:59.533Z,49.79
2023-05-14T04:17:58.073Z,54.46
2023-05-14T04:18:58.023Z,50.27
2023-05-14T04:19:57.998Z,50.11
2023-05-14T04:20:58.010Z,50.76
2023-05-14T04:21:57.980Z,54.95
2023-05-14T04:22:57.959Z,53.98
2023-05-14T04:23:57.959Z,51.40
2023-05-14T04:24:57.970Z,52.53
2023-05-14T04:25:57.955Z,53.01
2023-05-14T04:26:57.934Z,54.62
2023-05-14T04:27:57.920Z,49.95
2023-05-14T04:28:57.928Z,51.88
2023-05-14T04:29:57.921Z,52.05
2023-05-14T04:30:57.934Z,49.47
2023-05-14T04:31:57.920Z,49.47
2023-05-14T04:32:57.987Z,54.62
2023-05-14T04:33:57.883Z,52.37
2023-05-14T04:34:57.906Z,51.40
2023-05-14T04:35:57.867Z,53.17
2023-05-14T04:36:57.880Z,52.85
2023-05-14T04:37:57.849Z,53.50
2023-05-14T04:38:57.876Z,54.14
2023-05-14T04:39:57.867Z,55.59
2023-05-14T04:40:57.852Z,57.36
2023-05-14T04:41:57.829Z,50.11
2023-05-14T04:42:57.840Z,51.24
2023-05-14T04:43:57.810Z,53.98
2023-05-14T04:44:57.853Z,53.98
2023-05-14T04:45:57.814Z,53.98
2023-05-14T04:46:57.799Z,54.79
2023-05-14T04:47:57.870Z,55.27
2023-05-14T04:48:57.801Z,50.27
2023-05-14T04:49:57.763Z,49.63
2023-05-14T04:50:57.789Z,52.53
2023-05-14T04:51:57.767Z,56.72
2023-05-14T04:52:57.757Z,55.43
2023-05-14T04:53:57.754Z,52.85
2023-05-14T04:54:57.890Z,54.62
2023-05-14T04:55:57.974Z,53.01
2023-05-14T04:56:57.909Z,54.62
2023-05-14T04:57:57.805Z,53.01
2023-05-14T04:58:57.814Z,53.98
2023-05-14T04:59:57.777Z,54.79
2023-05-14T05:00:57.874Z,53.82
2023-05-14T05:01:57.776Z,53.66
2023-05-14T05:02:57.793Z,50.76
2023-05-14T05:03:57.803Z,50.92
2023-05-14T05:04:57.738Z,54.79
2023-05-14T05:05:58.691Z,54.79
2023-05-14T05:06:57.662Z,54.46
2023-05-14T05:07:57.686Z,54.62
2023-05-14T05:08:58.081Z,53.50
2023-05-14T05:09:57.651Z,56.56
2023-05-14T05:10:57.671Z,55.27
2023-05-14T05:11:57.627Z,51.40
2023-05-14T05:12:57.693Z,53.66
2023-05-14T05:13:57.625Z,50.76
2023-05-14T05:14:57.633Z,56.56
2023-05-14T05:15:57.623Z,54.46
2023-05-14T05:16:57.619Z,51.08
2023-05-14T05:17:57.637Z,51.72
2023-05-14T05:18:57.655Z,54.30
2023-05-14T05:19:57.574Z,54.14
2023-05-14T05:20:57.582Z,52.53
2023-05-14T05:21:57.554Z,53.17
2023-05-14T05:22:57.574Z,53.82
2023-05-14T05:23:57.533Z,53.50
2023-05-14T05:24:57.572Z,51.08
2023-05-14T05:25:57.548Z,55.59
2023-05-14T05:26:57.561Z,53.98
2023-05-14T05:27:57.545Z,53.98
2023-05-14T05:28:57.535Z,53.50
2023-05-14T05:29:57.530Z,53.50
2023-05-14T05:30:57.529Z,51.88
2023-05-14T05:31:57.494Z,52.37
2023-05-14T05:32:57.629Z,52.21
2023-05-14T05:33:57.494Z,52.05
2023-05-14T05:34:57.536Z,53.33
2023-05-14T05:35:57.457Z,53.82
2023-05-14T05:36:57.494Z,57.85
2023-05-14T05:37:58.596Z,52.05
2023-05-14T05:38:57.450Z,56.88
2023-05-14T05:39:57.450Z,53.01
2023-05-14T05:40:57.475Z,51.88
2023-05-14T05:41:57.440Z,52.37
2023-05-14T05:42:57.419Z,53.01
2023-05-14T05:43:57.404Z,50.92
2023-05-14T05:44:57.410Z,52.85
2023-05-14T05:45:57.420Z,53.17
2023-05-14T05:46:57.652Z,52.37
2023-05-14T05:47:57.468Z,52.53
2023-05-14T05:48:57.406Z,52.21
2023-05-14T05:49:57.368Z,53.01
2023-05-14T05:50:57.372Z,52.37
2023-05-14T05:52:04.369Z,51.56
2023-05-14T05:52:57.351Z,53.82
2023-05-14T05:53:57.323Z,53.17
2023-05-14T05:54:57.349Z,53.17
2023-05-14T05:55:57.300Z,54.30
2023-05-14T05:56:57.312Z,54.79
2023-05-14T05:57:57.306Z,52.37
2023-05-14T05:58:57.314Z,52.21
2023-05-14T05:59:57.301Z,54.30
2023-05-14T06:00:57.292Z,51.56
2023-05-14T06:01:57.305Z,51.24
2023-05-14T06:02:57.333Z,54.79
2023-05-14T06:03:57.259Z,55.59
2023-05-14T06:04:57.313Z,54.14
2023-05-14T06:05:57.247Z,52.85
2023-05-14T06:06:57.268Z,50.27
2023-05-14T06:07:57.224Z,53.01
2023-05-14T06:08:57.226Z,54.62
2023-05-14T06:09:57.221Z,55.27
2023-05-14T06:10:57.228Z,53.66
2023-05-14T06:11:57.212Z,51.08
2023-05-14T06:12:57.225Z,54.46
2023-05-14T06:13:57.194Z,51.24
2023-05-14T06:14:57.196Z,52.53
2023-05-14T06:15:57.157Z,54.14
2023-05-14T06:16:57.206Z,55.11
2023-05-14T06:17:57.192Z,52.37
2023-05-14T06:18:57.188Z,52.69
2023-05-14T06:19:57.136Z,53.17
2023-05-14T06:20:57.168Z,50.43
2023-05-14T06:21:57.110Z,52.05
2023-05-14T06:22:57.118Z,50.76
2023-05-14T06:23:57.110Z,50.92
2023-05-14T06:24:57.108Z,52.53
2023-05-14T06:25:57.092Z,54.30
2023-05-14T06:26:57.122Z,56.24
2023-05-14T06:27:57.093Z,50.43
2023-05-14T06:28:57.113Z,52.37
2023-05-14T06:29:57.071Z,52.69
2023-05-14T06:30:57.069Z,51.56
2023-05-14T06:31:57.171Z,50.43
2023-05-14T06:32:57.081Z,53.66
2023-05-14T06:33:57.036Z,54.14
2023-05-14T06:34:57.048Z,54.62
2023-05-14T06:35:57.011Z,53.66
2023-05-14T06:36:57.026Z,50.92
2023-05-14T06:37:57.017Z,52.05
2023-05-14T06:38:57.015Z,52.37
2023-05-14T06:39:57.854Z,51.72
2023-05-14T06:40:56.979Z,51.24
2023-05-14T06:41:56.962Z,51.88
2023-05-14T06:42:56.992Z,51.88
2023-05-14T06:43:56.956Z,51.40
2023-05-14T06:44:56.943Z,52.37
2023-05-14T06:45:56.926Z,50.60
2023-05-14T06:46:56.929Z,51.24
2023-05-14T06:47:57.044Z,48.98
2023-05-14T06:48:59.348Z,48.66
2023-05-14T06:49:56.882Z,50.92
2023-05-14T06:50:56.910Z,53.01
2023-05-14T06:51:56.875Z,54.30
2023-05-14T06:52:56.883Z,52.37
2023-05-14T06:53:56.863Z,52.69
2023-05-14T06:54:56.881Z,52.05
2023-05-14T06:55:56.863Z,48.34
2023-05-14T06:56:56.838Z,48.18
2023-05-14T06:57:56.848Z,51.08
2023-05-14T06:58:56.860Z,52.05
2023-05-14T06:59:56.813Z,52.53
2023-05-14T07:00:56.834Z,52.69
2023-05-14T07:01:56.905Z,50.27
2023-05-14T07:02:56.825Z,51.56
2023-05-14T07:03:56.873Z,51.88
2023-05-14T07:04:56.800Z,53.82
2023-05-14T07:05:56.760Z,49.47
2023-05-14T07:06:56.831Z,50.43
2023-05-14T07:07:56.747Z,50.76
2023-05-14T07:08:56.748Z,48.66
2023-05-14T07:09:56.753Z,51.08
2023-05-14T07:10:56.740Z,53.17
2023-05-14T07:11:56.725Z,51.56
2023-05-14T07:12:56.736Z,51.24
2023-05-14T07:13:56.706Z,51.08
2023-05-14T07:14:56.705Z,53.66
2023-05-14T07:15:56.679Z,52.37
2023-05-14T07:16:56.726Z,50.43
2023-05-14T07:17:56.723Z,50.76
2023-05-14T07:18:56.728Z,50.11
2023-05-14T07:19:56.657Z,51.72
2023-05-14T07:20:56.659Z,52.85
2023-05-14T07:21:56.650Z,52.37
2023-05-14T07:22:56.662Z,50.11
2023-05-14T07:23:56.623Z,50.27
2023-05-14T07:24:56.653Z,49.63
2023-05-14T07:25:56.622Z,50.43
2023-05-14T07:26:56.620Z,53.50
2023-05-14T07:27:56.598Z,52.05
2023-05-14T07:28:56.598Z,51.56
2023-05-14T07:29:56.591Z,52.37
2023-05-14T07:30:56.664Z,50.60
2023-05-14T07:31:56.583Z,51.56
2023-05-14T07:32:56.614Z,53.17
2023-05-14T07:33:56.591Z,53.17
2023-05-14T07:34:56.588Z,53.17
2023-05-14T07:35:56.551Z,51.88
2023-05-14T07:36:56.554Z,50.92
2023-05-14T07:37:56.539Z,49.63
2023-05-14T07:38:56.575Z,52.85
2023-05-14T07:39:56.516Z,54.79
2023-05-14T07:40:56.545Z,52.85
2023-05-14T07:41:56.497Z,50.76
2023-05-14T07:42:56.508Z,53.01
2023-05-14T07:43:56.524Z,52.05
2023-05-14T07:44:56.511Z,52.69
2023-05-14T07:45:56.504Z,51.08
2023-05-14T07:46:56.528Z,51.88
2023-05-14T07:47:56.606Z,52.85
2023-05-14T07:48:56.480Z,54.79
2023-05-14T07:49:56.477Z,51.88
2023-05-14T07:50:56.471Z,52.85
2023-05-14T07:51:56.474Z,54.30
2023-05-14T07:52:56.449Z,55.43
2023-05-14T07:53:56.415Z,52.85
2023-05-14T07:54:56.434Z,51.08
2023-05-14T07:55:56.402Z,52.85
2023-05-14T07:56:56.427Z,53.66
2023-05-14T07:57:56.393Z,56.07
2023-05-14T07:58:56.433Z,56.40
2023-05-14T07:59:56.389Z,53.82
2023-05-14T08:00:56.383Z,52.85
2023-05-14T08:01:56.401Z,53.33
2023-05-14T08:02:56.566Z,55.59
2023-05-14T08:03:56.433Z,53.50
2023-05-14T08:04:56.362Z,54.79
2023-05-14T08:05:56.345Z,54.30
2023-05-14T08:06:56.347Z,52.53
2023-05-14T08:07:56.329Z,53.50
2023-05-14T08:08:56.344Z,53.01
2023-05-14T08:09:56.311Z,53.98
2023-05-14T08:10:56.342Z,51.72
2023-05-14T08:11:56.304Z,52.37
2023-05-14T08:12:56.311Z,53.33
2023-05-14T08:13:56.301Z,53.33
2023-05-14T08:14:56.327Z,53.66
2023-05-14T08:15:56.275Z,51.24
2023-05-14T08:16:56.340Z,52.05
2023-05-14T08:17:56.280Z,54.14
2023-05-14T08:18:56.323Z,52.69
2023-05-14T08:19:56.248Z,53.50
2023-05-14T08:20:56.276Z,52.05
2023-05-14T08:21:56.257Z,54.62
2023-05-14T08:22:56.239Z,54.14
2023-05-14T08:23:56.257Z,56.07
2023-05-14T08:24:56.238Z,52.69
2023-05-14T08:25:56.204Z,53.50
2023-05-14T08:26:56.241Z,53.66
2023-05-14T08:27:56.190Z,53.50
2023-05-14T08:28:56.219Z,53.33
2023-05-14T08:29:56.185Z,52.05
2023-05-14T08:30:56.274Z,53.50
2023-05-14T08:31:56.168Z,52.53
2023-05-14T08:32:56.195Z,55.75
2023-05-14T08:33:56.189Z,52.85
2023-05-14T08:34:56.143Z,54.79
2023-05-14T08:35:56.135Z,52.85
2023-05-14T08:36:56.141Z,53.01
2023-05-14T08:37:56.107Z,50.43
2023-05-14T08:38:56.168Z,52.85
2023-05-14T08:39:56.195Z,52.53
2023-05-14T08:40:56.114Z,51.56
2023-05-14T08:41:56.140Z,52.37
2023-05-14T08:42:56.135Z,53.50
2023-05-14T08:43:56.101Z,52.37
2023-05-14T08:44:56.101Z,53.33
2023-05-14T08:45:56.063Z,53.17
2023-05-14T08:46:56.093Z,52.69
2023-05-14T08:47:56.144Z,53.98
2023-05-14T08:48:56.112Z,54.14
2023-05-14T08:49:56.054Z,54.79
2023-05-14T08:50:56.073Z,54.95
2023-05-14T08:51:56.005Z,53.82
2023-05-14T08:52:56.056Z,54.95
2023-05-14T08:53:55.990Z,53.98
2023-05-14T08:54:56.022Z,53.17
2023-05-14T08:55:56.040Z,53.98
2023-05-14T08:56:56.019Z,53.33
2023-05-14T08:57:55.964Z,53.50
2023-05-14T08:58:55.980Z,55.91
2023-05-14T08:59:55.950Z,54.30
2023-05-14T09:00:55.954Z,52.85
2023-05-14T09:01:56.038Z,55.27
2023-05-14T09:02:55.966Z,54.95
2023-05-14T09:03:56.013Z,56.56
2023-05-14T09:04:55.952Z,56.07
2023-05-14T09:05:56.715Z,55.75
2023-05-14T09:06:55.945Z,54.46
2023-05-14T09:07:55.897Z,54.14
2023-05-14T09:08:55.943Z,54.62
2023-05-14T09:09:55.897Z,53.01
2023-05-14T09:10:55.916Z,53.66
2023-05-14T09:11:55.874Z,53.33
2023-05-14T09:12:55.875Z,52.69
2023-05-14T09:13:55.858Z,52.05
2023-05-14T09:14:55.900Z,50.60
2023-05-14T09:15:55.896Z,52.37
2023-05-14T09:16:55.833Z,51.24
2023-05-14T09:17:55.883Z,52.69
2023-05-14T09:18:55.875Z,55.11
2023-05-14T09:19:55.818Z,55.27
2023-05-14T09:20:55.838Z,54.30
2023-05-14T09:21:55.846Z,53.98
2023-05-14T09:22:55.844Z,53.33
2023-05-14T09:23:55.763Z,53.17
2023-05-14T09:24:55.809Z,52.37
2023-05-14T09:25:55.762Z,54.79
2023-05-14T09:26:55.774Z,55.11
2023-05-14T09:27:57.953Z,53.50
2023-05-14T09:28:55.760Z,54.62
2023-05-14T09:29:55.730Z,53.98
2023-05-14T09:30:55.754Z,53.98
2023-05-14T09:31:55.784Z,53.17
2023-05-14T09:32:55.819Z,52.85
2023-05-14T09:33:55.704Z,52.85
2023-05-14T09:34:55.720Z,55.11
2023-05-14T09:35:57.675Z,55.43
2023-05-14T09:36:55.722Z,56.07
2023-05-14T09:37:55.675Z,55.11
2023-05-14T09:38:55.684Z,54.62
2023-05-14T09:39:55.672Z,57.36
2023-05-14T09:40:55.711Z,54.95
2023-05-14T09:41:55.644Z,54.95
2023-05-14T09:42:55.671Z,55.75
2023-05-14T09:43:55.659Z,55.75
2023-05-14T09:44:55.649Z,55.75
2023-05-14T09:45:55.612Z,55.59
2023-05-14T09:46:55.680Z,55.59
2023-05-14T09:47:55.799Z,55.75
2023-05-14T09:48:55.620Z,56.88
2023-05-14T09:49:55.590Z,55.27
2023-05-14T09:50:55.627Z,54.95
2023-05-14T09:51:55.570Z,56.56
2023-05-14T09:52:55.592Z,54.14
2023-05-14T09:53:55.613Z,56.07
2023-05-14T09:54:55.576Z,56.24
2023-05-14T09:55:55.547Z,54.46
2023-05-14T09:56:55.971Z,55.91
2023-05-14T09:57:55.526Z,56.40
2023-05-14T09:58:55.545Z,54.46
2023-05-14T09:59:55.546Z,53.50
2023-05-14T10:00:55.552Z,54.95
2023-05-14T10:01:55.496Z,55.91
2023-05-14T10:02:55.537Z,53.98
2023-05-14T10:03:55.530Z,56.56
2023-05-14T10:04:55.522Z,54.79
2023-05-14T10:05:55.512Z,55.27
2023-05-14T10:06:55.492Z,54.14
2023-05-14T10:07:55.460Z,54.79
2023-05-14T10:08:55.475Z,55.91
2023-05-14T10:09:57.185Z,56.07
2023-05-14T10:10:55.455Z,56.07
2023-05-14T10:11:55.426Z,55.11
2023-05-14T10:12:55.459Z,55.43
2023-05-14T10:13:55.434Z,55.59
2023-05-14T10:14:55.443Z,53.17
2023-05-14T10:15:55.400Z,56.07
2023-05-14T10:16:55.462Z,55.75
2023-05-14T10:17:55.449Z,56.72
2023-05-14T10:18:57.317Z,57.36
2023-05-14T10:19:55.369Z,54.46
2023-05-14T10:20:55.378Z,56.07
2023-05-14T10:21:55.369Z,55.43
2023-05-14T10:22:55.381Z,57.36
2023-05-14T10:23:55.357Z,55.27
2023-05-14T10:24:55.398Z,54.14
2023-05-14T10:25:55.343Z,54.30
2023-05-14T10:26:55.340Z,56.40
2023-05-14T10:27:55.324Z,56.07
2023-05-14T10:28:55.324Z,53.98
2023-05-14T10:29:55.349Z,54.62
2023-05-14T10:30:55.317Z,56.56
2023-05-14T10:31:55.279Z,55.27
2023-05-14T10:32:55.350Z,55.59
2023-05-14T10:33:55.272Z,55.59
2023-05-14T10:34:55.283Z,56.40
2023-05-14T10:35:55.276Z,57.36
2023-05-14T10:36:55.274Z,54.95
2023-05-14T10:37:55.260Z,55.75
2023-05-14T10:38:55.268Z,54.95
2023-05-14T10:39:55.232Z,55.27
2023-05-14T10:40:55.236Z,55.59
2023-05-14T10:41:55.218Z,54.79
2023-05-14T10:42:55.218Z,53.98
2023-05-14T10:43:55.231Z,55.91
2023-05-14T10:44:55.235Z,53.98
2023-05-14T10:45:55.192Z,53.17
2023-05-14T10:46:55.243Z,55.27
2023-05-14T10:47:55.260Z,55.43
2023-05-14T10:48:55.196Z,56.24
2023-05-14T10:49:55.153Z,56.56
2023-05-14T10:50:55.205Z,55.27
2023-05-14T10:51:55.157Z,56.72
2023-05-14T10:52:55.199Z,55.91
2023-05-14T10:53:55.159Z,56.07
2023-05-14T10:54:55.141Z,54.95
2023-05-14T10:55:55.121Z,56.07
2023-05-14T10:56:55.121Z,54.46
2023-05-14T10:57:55.137Z,55.91
2023-05-14T10:58:55.101Z,56.07
2023-05-14T10:59:55.176Z,55.75
2023-05-14T11:00:55.103Z,56.40
2023-05-14T11:01:55.162Z,55.91
2023-05-14T11:02:55.170Z,56.56
2023-05-14T11:03:55.163Z,55.27
2023-05-14T11:04:55.063Z,53.33
2023-05-14T11:05:55.067Z,54.62
2023-05-14T11:06:55.070Z,54.79
2023-05-14T11:07:55.032Z,54.95
2023-05-14T11:08:55.045Z,54.79
2023-05-14T11:09:55.015Z,55.59
2023-05-14T11:10:55.036Z,54.14
2023-05-14T11:11:55.010Z,54.30
2023-05-14T11:12:55.021Z,54.62
2023-05-14T11:13:55.037Z,56.40
2023-05-14T11:14:54.989Z,56.40
2023-05-14T11:15:54.978Z,56.40
2023-05-14T11:16:55.000Z,56.24
2023-05-14T11:17:54.988Z,55.91
2023-05-14T11:18:55.300Z,54.46
2023-05-14T11:19:54.946Z,53.50
2023-05-14T11:20:54.953Z,54.79
2023-05-14T11:21:54.979Z,54.95
2023-05-14T11:22:54.946Z,54.14
2023-05-14T11:23:54.963Z,54.79
2023-05-14T11:24:54.951Z,52.85
2023-05-14T11:25:54.978Z,53.33
2023-05-14T11:26:54.915Z,53.50
2023-05-14T11:27:54.904Z,52.37
2023-05-14T11:28:54.907Z,53.17
2023-05-14T11:29:54.867Z,52.85
2023-05-14T11:30:54.916Z,53.01
2023-05-14T11:31:54.865Z,53.50
2023-05-14T11:32:54.934Z,51.88
2023-05-14T11:33:54.883Z,53.33
2023-05-14T11:34:54.866Z,52.53
2023-05-14T11:35:54.838Z,52.85
2023-05-14T11:36:54.857Z,52.85
2023-05-14T11:37:54.825Z,52.37
2023-05-14T11:38:54.860Z,51.88
2023-05-14T11:39:54.807Z,52.21
2023-05-14T11:40:54.816Z,52.85
2023-05-14T11:41:54.781Z,55.27
2023-05-14T11:42:54.790Z,54.62
2023-05-14T11:43:54.777Z,53.50
2023-05-14T11:44:54.803Z,53.17
2023-05-14T11:45:54.775Z,55.91
2023-05-14T11:46:54.773Z,55.43
2023-05-14T11:47:54.831Z,54.95
2023-05-14T11:48:54.771Z,55.43
2023-05-14T11:49:54.742Z,55.27
2023-05-14T11:50:54.745Z,53.50
2023-05-14T11:51:54.709Z,53.98
2023-05-14T11:52:54.761Z,54.79
2023-05-14T11:53:54.744Z,55.11
2023-05-14T11:54:54.722Z,54.79
2023-05-14T11:55:54.690Z,54.79
2023-05-14T11:56:54.691Z,54.30
2023-05-14T11:57:54.684Z,55.43
2023-05-14T11:58:54.677Z,53.82
2023-05-14T11:59:54.693Z,55.43
2023-05-14T12:00:54.654Z,54.79
2023-05-14T12:01:54.668Z,54.95
2023-05-14T12:02:54.712Z,56.56
2023-05-14T12:03:54.678Z,54.79
2023-05-14T12:04:54.679Z,54.46
2023-05-14T12:05:54.635Z,54.62
2023-05-14T12:06:54.615Z,54.95
2023-05-14T12:07:54.598Z,55.59
2023-05-14T12:08:54.618Z,55.91
2023-05-14T12:09:54.587Z,53.33
2023-05-14T12:10:54.624Z,55.43
2023-05-14T12:11:54.574Z,53.82
2023-05-14T12:12:54.631Z,53.98
2023-05-14T12:13:54.557Z,55.59
2023-05-14T12:14:54.557Z,55.27
2023-05-14T12:15:54.593Z,53.98
2023-05-14T12:16:54.574Z,53.98
2023-05-14T12:17:54.573Z,54.46
2023-05-14T12:18:54.570Z,55.59
2023-05-14T12:19:54.518Z,55.11
2023-05-14T12:20:54.558Z,57.20
2023-05-14T12:21:54.534Z,55.59
2023-05-14T12:22:54.516Z,54.62
2023-05-14T12:23:54.497Z,54.95
2023-05-14T12:24:54.540Z,53.98
2023-05-14T12:25:54.493Z,54.62
2023-05-14T12:26:54.540Z,54.14
2023-05-14T12:27:54.470Z,55.75
2023-05-14T12:28:54.490Z,56.56
2023-05-14T12:29:54.454Z,56.24
2023-05-14T12:30:54.459Z,54.62
2023-05-14T12:31:54.470Z,55.11
2023-05-14T12:32:54.573Z,53.66
2023-05-14T12:33:54.423Z,53.01
2023-05-14T12:34:54.473Z,54.79
2023-05-14T12:35:54.446Z,55.59
2023-05-14T12:36:54.442Z,55.91
2023-05-14T12:37:54.425Z,56.07
2023-05-14T12:38:54.451Z,54.79
2023-05-14T12:39:54.379Z,55.75
2023-05-14T12:40:54.398Z,55.43
2023-05-14T12:41:54.371Z,53.66
2023-05-14T12:42:56.577Z,55.11
2023-05-14T12:43:54.394Z,54.79
2023-05-14T12:44:54.366Z,55.75
2023-05-14T12:45:54.398Z,55.75
2023-05-14T12:46:54.415Z,53.01
2023-05-14T12:47:54.366Z,52.69
2023-05-14T12:48:54.352Z,55.43
2023-05-14T12:49:54.314Z,54.62
2023-05-14T12:50:54.361Z,54.30
2023-05-14T12:52:03.176Z,54.30
2023-05-14T12:52:55.370Z,56.24